Time;durP1;ratioP1;P1;durP2;ratioP2;P2;SDS_P1;SDS_P2;PMS_P1;PMS_P2;Temp;Humidity;BMP_temperature;BMP_pressure;BME280_temperature;BME280_humidity;BME280_pressure;Samples;Min_cycle;Max_cycle;Signal;HPM_P1;HPM_P2
2022/07/08 00:04:53;;;;;;;5.23;1.90;;;17.30;80.80;;;;;;21082161;28;20201;-71
2022/07/08 00:14:55;;;;;;;7.03;2.30;;;17.30;81.20;;;;;;21080571;28;20599;-69
2022/07/08 00:24:57;;;;;;;8.43;1.93;;;17.30;81.30;;;;;;21007870;28;20296;-68
2022/07/08 00:34:59;;;;;;;6.43;1.83;;;17.20;80.70;;;;;;20995997;28;20248;-66
2022/07/08 00:45:01;;;;;;;10.23;2.00;;;17.20;79.90;;;;;;21005164;28;20319;-66
2022/07/08 00:55:03;;;;;;;8.30;2.00;;;17.20;79.70;;;;;;20997197;28;20227;-65
2022/07/08 01:05:06;;;;;;;8.37;2.40;;;17.00;79.40;;;;;;20995606;28;20216;-64
2022/07/08 01:15:08;;;;;;;10.17;2.00;;;16.90;79.40;;;;;;20994808;28;20241;-65
2022/07/08 01:25:11;;;;;;;8.17;2.23;;;16.90;79.50;;;;;;20998850;28;20206;-67
2022/07/08 01:35:12;;;;;;;5.83;1.90;;;16.70;79.50;;;;;;21007809;28;20631;-63
2022/07/08 01:45:15;;;;;;;5.40;2.07;;;16.70;79.20;;;;;;21009490;28;20260;-65
2022/07/08 01:55:17;;;;;;;6.27;2.10;;;16.50;78.70;;;;;;21007805;28;20698;-63
2022/07/08 02:05:18;;;;;;;7.90;2.60;;;16.60;78.60;;;;;;21007387;28;20211;-65
2022/07/08 02:15:20;;;;;;;10.47;2.33;;;16.70;78.60;;;;;;21006170;28;20386;-65
2022/07/08 02:25:22;;;;;;;5.67;2.20;;;16.80;78.30;;;;;;21003039;28;20214;-66
2022/07/08 02:35:23;;;;;;;6.03;2.20;;;16.80;78.10;;;;;;21004894;28;20239;-66
2022/07/08 02:45:25;;;;;;;7.53;2.23;;;16.80;78.00;;;;;;21003258;28;20231;-67
2022/07/08 02:55:29;;;;;;;7.60;2.40;;;16.90;78.30;;;;;;21003109;28;20230;-68
2022/07/08 03:05:31;;;;;;;8.53;2.30;;;16.80;78.50;;;;;;21002917;28;20576;-67
2022/07/08 03:15:33;;;;;;;6.73;2.07;;;16.70;78.90;;;;;;21001394;28;20238;-65
2022/07/08 03:25:35;;;;;;;5.90;2.17;;;16.80;78.90;;;;;;21000705;28;20303;-65
2022/07/08 03:35:37;;;;;;;12.80;3.07;;;16.70;78.80;;;;;;21000327;28;20242;-65
2022/07/08 03:45:39;;;;;;;4.10;1.73;;;16.60;79.00;;;;;;20999270;28;20260;-66
2022/07/08 03:55:40;;;;;;;5.30;2.23;;;16.60;79.30;;;;;;20998105;28;20334;-63
2022/07/08 04:05:42;;;;;;;6.80;1.83;;;16.70;79.40;;;;;;21000243;28;20214;-72
2022/07/08 04:15:44;;;;;;;7.20;2.03;;;16.70;79.30;;;;;;21004435;28;20251;-65
2022/07/08 04:25:46;;;;;;;5.40;2.30;;;16.60;79.00;;;;;;21003169;28;20249;-70
2022/07/08 04:35:47;;;;;;;6.30;1.97;;;16.70;79.00;;;;;;21003907;28;20239;-66
2022/07/08 04:45:49;;;;;;;5.03;1.67;;;16.70;78.70;;;;;;21005118;28;20745;-67
2022/07/08 04:55:51;;;;;;;6.20;1.50;;;16.80;78.70;;;;;;21005409;28;20247;-65
2022/07/08 05:05:53;;;;;;;7.87;2.17;;;16.80;78.00;;;;;;21010187;28;20213;-67
2022/07/08 05:15:55;;;;;;;10.53;2.20;;;16.90;77.90;;;;;;21017517;28;20242;-66
2022/07/08 05:25:56;;;;;;;4.43;1.70;;;16.90;77.80;;;;;;21033883;28;20239;-68
2022/07/08 05:35:58;;;;;;;6.33;2.10;;;17.00;77.80;;;;;;21019506;28;20242;-66
2022/07/08 05:46:00;;;;;;;12.27;3.17;;;16.80;77.70;;;;;;21009380;28;20235;-65
2022/07/08 05:56:02;;;;;;;13.70;3.53;;;16.70;77.50;;;;;;21017927;28;20278;-69
2022/07/08 06:06:05;;;;;;;6.23;1.80;;;16.90;77.40;;;;;;21009088;28;20205;-69
2022/07/08 06:16:07;;;;;;;7.70;1.93;;;16.90;76.40;;;;;;21005092;28;20233;-69
2022/07/08 06:26:10;;;;;;;5.93;1.70;;;16.90;76.00;;;;;;20999373;28;20222;-69
2022/07/08 06:36:12;;;;;;;11.17;1.90;;;17.20;75.80;;;;;;21003400;28;20674;-64
2022/07/08 06:46:14;;;;;;;8.83;2.80;;;17.50;74.90;;;;;;21002759;28;20234;-65
2022/07/08 06:56:16;;;;;;;7.23;2.80;;;17.50;74.30;;;;;;21002804;28;20241;-72
2022/07/08 07:06:18;;;;;;;5.53;3.10;;;17.60;73.70;;;;;;21001703;28;20216;-72
2022/07/08 07:16:19;;;;;;;8.13;3.50;;;17.70;73.30;;;;;;21001495;28;20709;-72
2022/07/08 07:26:21;;;;;;;6.50;2.23;;;17.80;73.20;;;;;;20981198;28;20206;-63
2022/07/08 07:36:23;;;;;;;7.60;2.50;;;17.80;72.60;;;;;;20997549;28;20278;-73
2022/07/08 07:46:25;;;;;;;5.47;2.40;;;18.00;72.20;;;;;;20997596;28;20235;-71
2022/07/08 07:56:26;;;;;;;4.23;1.77;;;18.30;71.60;;;;;;20997874;28;20725;-75
2022/07/08 08:06:28;;;;;;;10.43;2.00;;;18.50;71.10;;;;;;21017001;28;20649;-69
2022/07/08 08:16:30;;;;;;;8.30;2.43;;;18.60;70.50;;;;;;21078971;28;20709;-76
2022/07/08 08:26:32;;;;;;;5.77;1.63;;;18.80;69.90;;;;;;21069642;28;20607;-74
2022/07/08 08:36:34;;;;;;;8.00;2.70;;;19.00;69.70;;;;;;21077476;28;20237;-70
2022/07/08 08:46:36;;;;;;;8.70;2.70;;;19.20;69.00;;;;;;21077970;28;20236;-65
2022/07/08 08:56:38;;;;;;;5.93;1.90;;;19.20;68.10;;;;;;21076782;28;20272;-61
2022/07/08 09:06:40;;;;;;;6.57;1.80;;;19.40;68.20;;;;;;21078688;28;20213;-69
2022/07/08 09:17:16;;;;;;;5.87;1.77;;;19.50;67.10;;;;;;21076965;28;20232;-64
2022/07/08 09:27:18;;;;;;;5.63;1.50;;;19.70;66.40;;;;;;21075910;28;20209;-66
2022/07/08 09:37:21;;;;;;;5.10;1.37;;;20.00;66.30;;;;;;21076659;28;20233;-66
2022/07/08 09:47:22;;;;;;;5.80;2.00;;;20.50;65.10;;;;;;21075114;28;20343;-69
2022/07/08 09:57:25;;;;;;;4.13;1.60;;;20.20;63.60;;;;;;21088969;28;20260;-70
2022/07/08 10:07:26;;;;;;;6.73;1.80;;;19.70;64.00;;;;;;21090543;28;20208;-70
2022/07/08 10:17:39;;;;;;;5.53;1.57;;;19.70;63.60;;;;;;21101672;28;20239;-70
2022/07/08 10:27:42;;;;;;;3.70;1.43;;;19.90;62.70;;;;;;21062997;28;20252;-73
2022/07/08 10:37:55;;;;;;;4.30;1.63;;;20.30;62.60;;;;;;21039373;28;20754;-71
2022/07/08 10:48:09;;;;;;;3.47;1.50;;;20.60;62.10;;;;;;21032441;28;20671;-73
2022/07/08 10:58:11;;;;;;;5.17;2.00;;;21.00;61.40;;;;;;21086317;28;20602;-72
2022/07/08 11:08:19;;;;;;;5.97;2.17;;;21.30;60.00;;;;;;21090730;28;20199;-69
2022/07/08 11:18:23;;;;;;;4.13;1.60;;;20.90;59.50;;;;;;21088399;28;20757;-75
2022/07/08 11:28:25;;;;;;;5.27;1.53;;;20.60;59.70;;;;;;21021042;28;20289;-73
2022/07/08 11:38:37;;;;;;;3.33;1.50;;;20.90;60.40;;;;;;20999613;28;20234;-72
2022/07/08 11:48:39;;;;;;;3.87;1.90;;;21.40;59.80;;;;;;20998247;28;20322;-72
2022/07/08 11:58:45;;;;;;;5.37;1.43;;;21.60;58.80;;;;;;21063894;28;20237;-72
2022/07/08 12:08:47;;;;;;;6.00;1.93;;;21.80;58.40;;;;;;21079187;28;20205;-71
2022/07/08 12:18:49;;;;;;;4.57;1.40;;;22.00;57.90;;;;;;21078756;28;20697;-68
2022/07/08 12:28:51;;;;;;;4.23;1.50;;;22.20;56.70;;;;;;21076703;28;20297;-71
2022/07/08 12:38:54;;;;;;;2.87;1.40;;;22.50;56.60;;;;;;21078434;28;20234;-69
2022/07/08 12:48:56;;;;;;;3.67;1.20;;;22.60;55.40;;;;;;21078654;28;20245;-71
2022/07/08 12:58:59;;;;;;;4.33;1.20;;;22.50;55.50;;;;;;21077356;28;20292;-70
2022/07/08 13:09:02;;;;;;;6.47;1.50;;;22.60;55.40;;;;;;21058702;28;20198;-68
2022/07/08 13:19:09;;;;;;;8.43;2.00;;;22.50;55.00;;;;;;21077834;28;20242;-69
2022/07/08 13:29:10;;;;;;;4.30;1.50;;;22.30;54.20;;;;;;21087609;28;20661;-73
2022/07/08 13:39:12;;;;;;;3.73;1.40;;;22.20;53.60;;;;;;21092591;28;20238;-68
2022/07/08 13:49:14;;;;;;;4.53;1.33;;;22.20;53.30;;;;;;21092252;28;20765;-69
2022/07/08 13:59:16;;;;;;;4.30;1.53;;;22.30;52.70;;;;;;21024546;28;20235;-68
2022/07/08 14:09:17;;;;;;;2.37;1.40;;;22.40;52.10;;;;;;21006335;28;20211;-70
2022/07/08 14:19:19;;;;;;;8.93;2.40;;;22.50;51.50;;;;;;21006161;28;20239;-74
2022/07/08 14:29:21;;;;;;;3.10;1.90;;;22.70;51.60;;;;;;21005100;28;20576;-71
2022/07/08 14:39:23;;;;;;;4.27;2.60;;;23.00;51.10;;;;;;21003682;28;20231;-71
2022/07/08 14:49:25;;;;;;;3.03;1.80;;;23.20;50.90;;;;;;21002091;28;20242;-71
2022/07/08 14:59:27;;;;;;;5.80;1.73;;;23.20;51.00;;;;;;21002779;28;20231;-70
2022/07/08 15:09:29;;;;;;;5.43;1.67;;;23.70;50.60;;;;;;21004371;28;20233;-71
2022/07/08 15:19:31;;;;;;;2.83;1.60;;;23.50;50.40;;;;;;21038722;28;20238;-71
2022/07/08 15:29:33;;;;;;;4.80;1.60;;;23.70;50.60;;;;;;21001903;28;20215;-71
2022/07/08 15:39:35;;;;;;;5.07;1.37;;;23.90;50.30;;;;;;20998970;28;20243;-69
2022/07/08 15:49:39;;;;;;;3.70;1.83;;;23.60;50.10;;;;;;20996816;28;20242;-69
2022/07/08 15:59:41;;;;;;;5.33;2.80;;;23.60;50.10;;;;;;20996031;28;20295;-72
2022/07/08 16:09:43;;;;;;;3.50;2.03;;;24.00;49.40;;;;;;20996310;28;20282;-71
2022/07/08 16:19:44;;;;;;;4.20;2.20;;;25.80;48.20;;;;;;20996569;28;20231;-71
2022/07/08 16:29:47;;;;;;;5.47;2.40;;;25.70;47.60;;;;;;21000003;28;20203;-78
2022/07/08 16:39:49;;;;;;;4.00;1.73;;;24.80;48.10;;;;;;21020773;28;20334;-78
2022/07/08 16:49:50;;;;;;;4.83;1.70;;;24.20;48.60;;;;;;20997640;28;20288;-74
2022/07/08 16:59:52;;;;;;;5.60;2.13;;;23.90;49.10;;;;;;20999040;28;20231;-74
2022/07/08 17:09:54;;;;;;;7.00;2.03;;;24.00;49.30;;;;;;21010766;28;20206;-72
2022/07/08 17:19:56;;;;;;;9.40;2.00;;;23.70;49.80;;;;;;21008094;28;20241;-70
2022/07/08 17:29:58;;;;;;;4.80;2.20;;;23.50;50.50;;;;;;20992223;28;20213;-70
2022/07/08 17:40:00;;;;;;;15.20;2.63;;;23.30;51.20;;;;;;21007533;28;20587;-63
2022/07/08 17:50:02;;;;;;;6.83;2.00;;;23.10;51.50;;;;;;21006721;28;20241;-71
2022/07/08 18:00:06;;;;;;;4.83;1.97;;;23.00;52.00;;;;;;21005048;28;20655;-72
2022/07/08 18:10:11;;;;;;;11.90;1.93;;;22.90;52.40;;;;;;21079685;28;20241;-73
2022/07/08 18:20:13;;;;;;;11.67;1.90;;;22.80;52.70;;;;;;21089539;28;20237;-71
2022/07/08 18:30:15;;;;;;;10.13;1.93;;;22.70;53.10;;;;;;21087756;28;20210;-69
2022/07/08 18:40:16;;;;;;;6.80;1.90;;;22.70;53.70;;;;;;21086875;28;20230;-69
2022/07/08 18:50:19;;;;;;;8.33;1.40;;;22.60;53.90;;;;;;21074577;28;20237;-70
2022/07/08 19:00:21;;;;;;;5.57;1.47;;;22.50;54.40;;;;;;21042819;28;20713;-67
2022/07/08 19:10:25;;;;;;;4.70;2.40;;;22.50;54.70;;;;;;21056437;28;20540;-64
2022/07/08 19:20:27;;;;;;;6.60;1.97;;;22.40;55.10;;;;;;20999484;28;20235;-65
2022/07/08 19:30:29;;;;;;;3.07;1.40;;;22.40;55.80;;;;;;21031742;28;20202;-66
2022/07/08 19:40:38;;;;;;;5.23;2.03;;;22.30;56.30;;;;;;21079637;28;20242;-67
2022/07/08 19:50:40;;;;;;;5.27;2.20;;;22.20;56.70;;;;;;21084471;28;20217;-70
2022/07/08 20:00:41;;;;;;;2.07;1.73;;;22.20;57.20;;;;;;21100107;28;20688;-65
2022/07/08 20:10:49;;;;;;;4.77;1.73;;;22.10;57.70;;;;;;21101553;28;20236;-72
2022/07/08 20:20:50;;;;;;;4.13;1.70;;;22.00;58.20;;;;;;21080348;28;20234;-73
2022/07/08 20:30:52;;;;;;;5.90;1.80;;;21.90;58.50;;;;;;21078485;28;20216;-66
2022/07/08 20:51:15;;;;;;;2.40;1.20;;;21.90;59.50;;;;;;21061530;28;20676;-63
2022/07/08 21:01:17;;;;;;;2.40;1.37;;;21.80;60.10;;;;;;21076630;28;20242;-72
2022/07/08 21:11:19;;;;;;;5.67;1.63;;;21.80;60.70;;;;;;21075732;28;20637;-64
2022/07/08 21:21:20;;;;;;;5.77;1.80;;;21.70;61.40;;;;;;21075607;28;20241;-63
2022/07/08 21:31:22;;;;;;;4.03;1.30;;;21.50;61.90;;;;;;21042571;28;20215;-63
2022/07/08 21:41:24;;;;;;;1.90;1.20;;;21.40;62.50;;;;;;20987859;28;20312;-62
2022/07/08 21:51:26;;;;;;;3.93;1.40;;;21.30;63.10;;;;;;21004425;28;20211;-64
2022/07/08 22:01:28;;;;;;;4.53;1.40;;;21.30;63.70;;;;;;21008561;28;20756;-62
2022/07/08 22:11:30;;;;;;;5.33;1.73;;;21.20;64.70;;;;;;21008306;28;20216;-68
2022/07/08 22:21:31;;;;;;;2.40;1.30;;;21.20;65.50;;;;;;21012046;28;20559;-67
2022/07/08 22:31:34;;;;;;;4.50;1.97;;;21.10;65.60;;;;;;21012410;28;20218;-67
2022/07/08 22:41:36;;;;;;;6.37;2.53;;;21.00;66.20;;;;;;21003186;28;20594;-66
2022/07/08 22:51:42;;;;;;;3.93;2.00;;;20.90;67.00;;;;;;21003987;28;20238;-74
2022/07/08 23:01:44;;;;;;;3.20;1.73;;;20.80;68.40;;;;;;21003002;28;20597;-63
2022/07/08 23:11:45;;;;;;;4.20;2.40;;;20.60;69.40;;;;;;21002212;28;20213;-65
2022/07/08 23:21:47;;;;;;;3.70;1.60;;;20.60;70.40;;;;;;21001677;28;20217;-63
2022/07/08 23:31:49;;;;;;;5.37;2.20;;;20.50;70.90;;;;;;21023243;28;20213;-64
2022/07/08 23:41:51;;;;;;;6.67;2.20;;;20.30;71.90;;;;;;21081044;28;20253;-63
2022/07/08 23:51:54;;;;;;;5.47;2.30;;;20.00;72.60;;;;;;21092208;28;20661;-63
